createdAt,value
2018-05-15T00:01:51.598Z,11.40
2018-05-15T00:04:18.692Z,11.50
2018-05-15T00:06:45.025Z,11.50
2018-05-15T00:09:11.421Z,11.50
2018-05-15T00:11:38.916Z,11.50
2018-05-15T00:14:05.262Z,11.50
2018-05-15T00:16:31.625Z,11.40
2018-05-15T00:18:57.950Z,11.20
2018-05-15T00:21:24.538Z,11.30
2018-05-15T00:23:50.986Z,11.20
2018-05-15T00:26:17.394Z,11.30
2018-05-15T00:28:43.762Z,11.30
2018-05-15T00:31:10.390Z,11.40
2018-05-15T00:33:36.786Z,11.30
2018-05-15T00:36:03.473Z,11.40
2018-05-15T00:38:29.908Z,11.30
2018-05-15T00:40:56.762Z,11.40
2018-05-15T00:43:23.179Z,11.30
2018-05-15T00:45:49.780Z,11.30
2018-05-15T00:48:16.206Z,11.30
2018-05-15T00:50:42.982Z,11.40
2018-05-15T00:53:09.419Z,11.30
2018-05-15T00:55:44.031Z,11.50
2018-05-15T00:58:10.441Z,11.50
2018-05-15T01:00:36.975Z,11.50
2018-05-15T01:03:03.657Z,11.60
2018-05-15T01:05:30.378Z,11.50
2018-05-15T01:07:56.876Z,11.40
2018-05-15T01:10:24.045Z,11.60
2018-05-15T01:12:50.546Z,11.60
2018-05-15T01:15:17.921Z,11.60
2018-05-15T01:17:44.325Z,11.50
2018-05-15T01:20:12.395Z,11.40
2018-05-15T01:22:39.734Z,11.40
2018-05-15T01:25:06.374Z,11.40
2018-05-15T01:27:32.939Z,11.30
2018-05-15T01:29:59.627Z,11.40
2018-05-15T01:32:26.182Z,11.50
2018-05-15T01:34:52.725Z,11.40
2018-05-15T01:37:19.429Z,11.40
2018-05-15T01:39:46.744Z,11.30
2018-05-15T01:42:14.036Z,11.20
2018-05-15T01:44:40.504Z,11.20
2018-05-15T01:47:08.019Z,11.50
2018-05-15T01:49:34.623Z,11.50
2018-05-15T01:52:01.149Z,11.50
2018-05-15T01:54:27.690Z,11.40
2018-05-15T01:56:55.100Z,11.30
2018-05-15T01:59:22.412Z,11.20
2018-05-15T02:01:48.894Z,11.20
2018-05-15T02:04:16.244Z,11.30
2018-05-15T02:06:42.807Z,11.30
2018-05-15T02:09:09.385Z,11.30
2018-05-15T02:11:36.850Z,11.30
2018-05-15T02:14:04.135Z,11.20
2018-05-15T02:16:30.794Z,11.20
2018-05-15T02:18:57.750Z,11.10
2018-05-15T02:21:24.362Z,11.20
2018-05-15T02:23:51.769Z,11.10
2018-05-15T02:26:19.026Z,11.00
2018-05-15T02:28:45.422Z,11.00
2018-05-15T02:31:12.067Z,11.40
2018-05-15T02:33:38.638Z,11.50
2018-05-15T02:36:05.354Z,11.50
2018-05-15T02:38:32.126Z,11.50
2018-05-15T02:40:58.582Z,11.50
2018-05-15T02:43:25.039Z,11.50
2018-05-15T02:45:51.632Z,11.40
2018-05-15T02:48:18.208Z,11.40
2018-05-15T02:50:44.730Z,11.30
2018-05-15T02:53:11.334Z,11.20
2018-05-15T02:55:38.050Z,11.30
2018-05-15T02:58:05.577Z,11.50
2018-05-15T03:00:32.154Z,11.50
2018-05-15T03:02:58.675Z,11.60
2018-05-15T03:05:26.234Z,11.40
2018-05-15T03:07:53.435Z,11.30
2018-05-15T03:10:20.010Z,11.30
2018-05-15T03:12:46.481Z,11.30
2018-05-15T03:15:13.841Z,11.20
2018-05-15T03:17:41.066Z,11.20
2018-05-15T03:20:07.653Z,11.20
2018-05-15T03:22:34.436Z,11.30
2018-05-15T03:25:00.912Z,11.20
2018-05-15T03:27:27.364Z,11.30
2018-05-15T03:29:53.890Z,11.20
2018-05-15T03:32:21.564Z,11.20
2018-05-15T03:34:48.107Z,11.10
2018-05-15T03:37:14.786Z,11.30
2018-05-15T03:39:41.264Z,11.30
2018-05-15T03:42:07.856Z,11.30
2018-05-15T03:44:34.505Z,11.30
2018-05-15T03:47:01.769Z,11.60
2018-05-15T03:49:28.204Z,11.60
2018-05-15T03:51:54.703Z,11.60
2018-05-15T03:54:22.109Z,11.40
2018-05-15T03:56:48.693Z,11.40
2018-05-15T03:59:15.911Z,11.60
2018-05-15T04:01:54.338Z,11.60
2018-05-15T04:04:33.085Z,11.70
2018-05-15T04:07:11.946Z,11.80
2018-05-15T04:09:39.177Z,11.40
2018-05-15T04:12:06.608Z,11.30
2018-05-15T04:14:34.980Z,11.30
2018-05-15T04:17:01.421Z,11.20
2018-05-15T04:19:27.885Z,11.30
2018-05-15T04:21:55.076Z,11.60
2018-05-15T04:24:21.620Z,11.60
2018-05-15T04:26:48.145Z,11.50
2018-05-15T04:29:14.743Z,11.50
2018-05-15T04:31:41.982Z,11.40
2018-05-15T04:34:09.184Z,11.60
2018-05-15T04:36:36.018Z,11.50
2018-05-15T04:39:02.591Z,11.50
2018-05-15T04:41:29.027Z,11.60
2018-05-15T04:43:55.696Z,11.60
2018-05-15T04:46:23.069Z,11.60
2018-05-15T04:48:49.707Z,11.60
2018-05-15T04:51:16.461Z,11.60
2018-05-15T04:53:43.207Z,11.60
2018-05-15T04:56:10.002Z,11.70
2018-05-15T04:58:37.316Z,11.70
2018-05-15T05:01:04.438Z,11.70
2018-05-15T05:03:31.454Z,11.70
2018-05-15T05:05:58.660Z,11.90
2018-05-15T05:08:25.127Z,11.90
2018-05-15T05:10:51.732Z,12.00
2018-05-15T05:13:18.196Z,12.20
2018-05-15T05:15:44.740Z,12.10
2018-05-15T05:18:11.232Z,11.90
2018-05-15T05:20:37.828Z,12.00
2018-05-15T05:23:05.244Z,11.70
2018-05-15T05:25:31.849Z,11.70
2018-05-15T05:27:58.552Z,11.50
2018-05-15T05:30:25.033Z,11.60
2018-05-15T05:32:51.572Z,11.60
2018-05-15T05:35:18.016Z,11.60
2018-05-15T05:37:44.515Z,11.70
2018-05-15T05:40:11.047Z,11.80
2018-05-15T05:42:38.144Z,11.90
2018-05-15T05:45:05.619Z,11.90
2018-05-15T05:47:32.532Z,11.90
2018-05-15T05:49:59.071Z,11.80
2018-05-15T05:52:25.781Z,11.80
2018-05-15T05:54:52.322Z,11.80
2018-05-15T05:57:18.994Z,11.80
2018-05-15T05:59:46.367Z,11.70
2018-05-15T06:02:13.013Z,11.70
2018-05-15T06:04:39.450Z,11.80
2018-05-15T06:07:06.876Z,11.80
2018-05-15T06:09:33.229Z,11.80
2018-05-15T06:11:59.578Z,11.70
2018-05-15T06:14:26.072Z,11.70
2018-05-15T06:16:53.336Z,11.80
2018-05-15T06:19:19.718Z,11.80
2018-05-15T06:21:46.138Z,12.00
2018-05-15T06:24:12.478Z,11.90
2018-05-15T06:26:39.022Z,11.80
2018-05-15T06:29:05.993Z,11.90
2018-05-15T06:31:32.322Z,11.90
2018-05-15T06:33:58.677Z,11.90
2018-05-15T06:36:25.117Z,11.90
2018-05-15T06:38:51.485Z,11.90
2018-05-15T06:41:17.810Z,11.80
2018-05-15T06:43:44.889Z,12.00
2018-05-15T06:46:11.321Z,12.00
2018-05-15T06:48:37.806Z,12.00
2018-05-15T06:51:04.161Z,12.10
2018-05-15T06:53:30.505Z,12.10
2018-05-15T06:55:56.809Z,12.10
2018-05-15T06:58:23.886Z,12.30
2018-05-15T07:00:50.205Z,12.30
2018-05-15T07:03:16.505Z,12.40
2018-05-15T07:05:42.845Z,12.50
2018-05-15T07:08:09.885Z,12.20
2018-05-15T07:10:36.205Z,12.30
2018-05-15T07:13:03.361Z,12.30
2018-05-15T07:15:29.674Z,12.30
2018-05-15T07:17:55.981Z,12.30
2018-05-15T07:20:22.380Z,12.40
2018-05-15T07:22:49.442Z,12.10
2018-05-15T07:25:15.757Z,12.10
2018-05-15T07:27:42.858Z,12.30
2018-05-15T07:30:09.213Z,12.30
2018-05-15T07:32:36.386Z,12.00
2018-05-15T07:35:02.805Z,12.00
2018-05-15T07:37:30.034Z,11.90
2018-05-15T07:39:56.438Z,11.90
2018-05-15T07:42:22.754Z,11.90
2018-05-15T07:44:49.064Z,11.80
2018-05-15T07:47:16.177Z,11.80
2018-05-15T07:49:42.521Z,11.80
2018-05-15T07:52:08.862Z,11.80
2018-05-15T07:54:35.330Z,11.80
2018-05-15T07:57:02.623Z,11.80
2018-05-15T07:59:28.986Z,11.80
2018-05-15T08:01:55.305Z,11.90
2018-05-15T08:04:21.719Z,11.90
2018-05-15T08:06:48.193Z,11.80
2018-05-15T08:09:14.506Z,11.80
2018-05-15T08:11:41.677Z,12.00
2018-05-15T08:14:08.070Z,11.90
2018-05-15T08:16:34.638Z,12.00
2018-05-15T08:19:01.001Z,12.10
2018-05-15T08:21:27.317Z,12.00
2018-05-15T08:23:53.637Z,12.10
2018-05-15T08:26:19.966Z,12.00
2018-05-15T08:28:46.294Z,12.20
2018-05-15T08:31:13.390Z,12.20
2018-05-15T08:33:39.766Z,12.10
2018-05-15T08:36:06.817Z,12.30
2018-05-15T08:38:33.913Z,12.30
2018-05-15T08:41:00.253Z,12.30
2018-05-15T08:43:26.569Z,12.40
2018-05-15T08:45:53.070Z,12.40
2018-05-15T08:48:19.394Z,12.50
2018-05-15T08:50:46.471Z,12.30
2018-05-15T08:53:12.793Z,12.30
2018-05-15T08:55:39.160Z,12.30
2018-05-15T08:58:05.570Z,12.30
2018-05-15T09:00:31.897Z,12.30
2018-05-15T09:02:58.237Z,12.40
2018-05-15T09:05:24.586Z,12.50
2018-05-15T09:07:50.929Z,12.70
2018-05-15T09:10:17.281Z,12.70
2018-05-15T09:12:43.677Z,12.70
2018-05-15T09:15:09.999Z,12.80
2018-05-15T09:17:36.945Z,12.80
2018-05-15T09:20:03.313Z,12.70
2018-05-15T09:22:29.657Z,12.60
2018-05-15T09:24:56.765Z,12.50
2018-05-15T09:27:23.222Z,12.50
2018-05-15T09:29:49.534Z,12.60
2018-05-15T09:32:16.617Z,12.70
2018-05-15T09:34:43.700Z,13.00
2018-05-15T09:37:10.938Z,13.10
2018-05-15T09:39:37.656Z,12.90
2018-05-15T09:42:04.721Z,13.10
2018-05-15T09:44:31.022Z,13.10
2018-05-15T09:46:57.751Z,13.30
2018-05-15T09:49:24.050Z,13.60
2018-05-15T09:51:51.125Z,14.30
2018-05-15T09:54:17.490Z,14.30
2018-05-15T09:56:44.093Z,14.50
2018-05-15T09:59:10.441Z,14.90
2018-05-15T10:01:36.901Z,15.00
2018-05-15T10:04:03.978Z,15.20
2018-05-15T10:06:30.582Z,15.20
2018-05-15T10:08:56.923Z,15.30
2018-05-15T10:11:23.234Z,15.20
2018-05-15T10:13:50.285Z,15.40
2018-05-15T10:16:16.963Z,15.40
2018-05-15T10:18:44.261Z,15.90
2018-05-15T10:21:10.708Z,15.80
2018-05-15T10:23:37.898Z,16.60
2018-05-15T10:26:04.229Z,16.60
2018-05-15T10:28:30.557Z,17.10
2018-05-15T10:30:56.902Z,17.60
2018-05-15T10:33:23.211Z,18.20
2018-05-15T10:35:50.281Z,19.00
2018-05-15T10:38:16.620Z,19.00
2018-05-15T10:40:42.985Z,19.40
2018-05-15T10:43:10.046Z,20.00
2018-05-15T10:45:36.434Z,19.90
2018-05-15T10:48:02.783Z,20.20
2018-05-15T10:50:29.135Z,20.40
2018-05-15T10:52:55.445Z,20.80
2018-05-15T10:55:21.778Z,21.10
2018-05-15T10:57:48.129Z,21.40
2018-05-15T11:00:15.198Z,22.20
2018-05-15T11:02:42.329Z,22.30
2018-05-15T11:05:12.416Z,22.40
2018-05-15T11:07:38.829Z,22.40
2018-05-15T11:10:05.173Z,22.60
2018-05-15T11:12:31.521Z,22.80
2018-05-15T11:14:57.881Z,23.00
2018-05-15T11:17:24.926Z,23.40
2018-05-15T11:20:04.091Z,23.50
2018-05-15T11:22:42.615Z,23.50
2018-05-15T11:25:09.058Z,23.90
2018-05-15T11:27:35.404Z,24.20
2018-05-15T11:30:01.721Z,24.20
2018-05-15T11:32:28.049Z,24.30
2018-05-15T11:34:54.365Z,24.30
2018-05-15T11:37:20.956Z,24.40
2018-05-15T11:39:47.326Z,24.50
2018-05-15T11:42:13.787Z,24.80
2018-05-15T11:44:40.241Z,25.30
2018-05-15T11:47:06.805Z,25.50
2018-05-15T11:49:33.229Z,25.70
2018-05-15T11:52:00.241Z,25.90
2018-05-15T11:54:25.821Z,26.00
2018-05-15T11:56:52.159Z,26.30
2018-05-15T11:59:18.537Z,26.50
2018-05-15T12:01:44.889Z,26.60
2018-05-15T12:04:11.993Z,27.10
2018-05-15T12:06:38.573Z,27.10
2018-05-15T12:09:04.909Z,27.30
2018-05-15T12:11:31.997Z,27.80
2018-05-15T12:13:58.317Z,27.80
2018-05-15T12:16:24.629Z,27.80
2018-05-15T12:18:50.956Z,27.90
2018-05-15T12:21:17.262Z,28.20
2018-05-15T12:23:43.627Z,28.00
2018-05-15T12:26:10.834Z,27.20
2018-05-15T12:28:37.145Z,27.20
2018-05-15T12:31:03.483Z,26.90
2018-05-15T12:33:29.825Z,26.40
2018-05-15T12:35:56.223Z,26.10
2018-05-15T12:38:22.542Z,26.10
2018-05-15T12:40:48.894Z,26.30
2018-05-15T12:43:15.205Z,26.50
2018-05-15T12:45:42.425Z,26.80
2018-05-15T12:48:09.603Z,27.00
2018-05-15T12:50:35.905Z,26.90
2018-05-15T12:53:02.966Z,27.00
2018-05-15T12:55:29.521Z,27.00
2018-05-15T12:57:55.854Z,26.70
2018-05-15T13:00:22.279Z,26.30
2018-05-15T13:02:48.625Z,25.80
2018-05-15T13:05:15.755Z,25.00
2018-05-15T13:07:42.069Z,24.90
2018-05-15T13:10:09.224Z,24.00
2018-05-15T13:12:35.589Z,24.00
2018-05-15T13:15:01.914Z,23.60
2018-05-15T13:17:28.265Z,23.00
2018-05-15T13:19:54.652Z,22.40
2018-05-15T13:22:20.974Z,21.90
2018-05-15T13:24:48.119Z,20.80
2018-05-15T13:27:14.832Z,20.80
2018-05-15T13:29:41.230Z,20.50
2018-05-15T13:32:07.565Z,20.10
2018-05-15T13:34:33.925Z,19.80
2018-05-15T13:37:00.575Z,19.50
2018-05-15T13:39:26.953Z,19.30
2018-05-15T13:41:53.329Z,19.00
2018-05-15T13:44:19.647Z,18.90
2018-05-15T13:46:45.953Z,19.00
2018-05-15T13:49:12.365Z,19.00
2018-05-15T13:51:38.686Z,18.80
2018-05-15T13:54:05.765Z,18.60
2018-05-15T13:56:32.090Z,18.60
2018-05-15T13:58:59.190Z,18.40
2018-05-15T14:01:25.489Z,18.40
2018-05-15T14:03:51.822Z,18.30
2018-05-15T14:06:18.142Z,18.40
2018-05-15T14:08:44.529Z,18.20
2018-05-15T14:11:11.596Z,17.90
2018-05-15T14:13:37.930Z,17.80
2018-05-15T14:16:04.350Z,17.70
2018-05-15T14:18:30.666Z,17.60
2018-05-15T14:20:57.721Z,17.40
2018-05-15T14:23:24.819Z,17.30
2018-05-15T14:25:51.134Z,17.30
2018-05-15T14:28:17.448Z,17.20
2018-05-15T14:30:44.542Z,17.00
2018-05-15T14:33:11.046Z,17.00
2018-05-15T14:35:37.397Z,16.90
2018-05-15T14:38:03.754Z,16.80
2018-05-15T14:40:30.053Z,16.70
2018-05-15T14:43:08.545Z,16.60
2018-05-15T14:45:34.885Z,16.40
2018-05-15T14:48:01.197Z,16.20
2018-05-15T14:50:27.526Z,16.00
2018-05-15T14:52:53.870Z,16.00
2018-05-15T14:55:20.186Z,15.90
2018-05-15T14:57:46.514Z,15.90
2018-05-15T15:00:12.863Z,15.80
2018-05-15T15:02:39.980Z,15.50
2018-05-15T15:05:06.305Z,15.50
2018-05-15T15:07:32.825Z,15.50
2018-05-15T15:09:59.194Z,15.40
2018-05-15T15:12:25.494Z,15.30
2018-05-15T15:14:51.821Z,15.40
2018-05-15T15:17:18.464Z,15.60
2018-05-15T15:19:44.736Z,15.50
2018-05-15T15:22:11.158Z,15.40
2018-05-15T15:24:37.485Z,15.30
2018-05-15T15:27:03.861Z,15.20
2018-05-15T15:29:30.169Z,15.10
2018-05-15T15:31:56.485Z,15.00
2018-05-15T15:34:22.824Z,14.60
2018-05-15T15:36:49.425Z,14.50
2018-05-15T15:39:16.487Z,14.30
2018-05-15T15:41:43.567Z,14.00
2018-05-15T15:44:09.953Z,14.10
2018-05-15T15:46:36.470Z,14.10
2018-05-15T15:49:02.825Z,14.10
2018-05-15T15:51:29.878Z,13.90
2018-05-15T15:53:56.199Z,13.90
2018-05-15T15:56:23.669Z,13.80
2018-05-15T15:58:50.158Z,13.70
2018-05-15T16:01:16.469Z,13.70
2018-05-15T16:03:42.811Z,13.70
2018-05-15T16:06:09.226Z,13.80
2018-05-15T16:08:35.581Z,13.80
2018-05-15T16:11:01.906Z,13.80
2018-05-15T16:13:28.226Z,13.80
2018-05-15T16:15:54.622Z,13.80
2018-05-15T16:18:22.015Z,13.80
2018-05-15T16:20:48.587Z,13.80
2018-05-15T16:23:14.946Z,13.90
2018-05-15T16:25:42.217Z,13.80
2018-05-15T16:28:08.554Z,13.70
2018-05-15T16:30:34.870Z,13.80
2018-05-15T16:33:01.203Z,13.80
2018-05-15T16:35:27.505Z,13.80
2018-05-15T16:37:54.578Z,13.80
2018-05-15T16:40:20.893Z,13.80
2018-05-15T16:42:47.992Z,13.70
2018-05-15T16:45:15.065Z,13.70
2018-05-15T16:47:42.153Z,13.80
2018-05-15T16:50:08.470Z,13.80
2018-05-15T16:52:35.554Z,13.80
2018-05-15T16:55:02.102Z,13.80
2018-05-15T16:57:28.460Z,13.90
2018-05-15T16:59:54.769Z,14.10
2018-05-15T17:02:21.109Z,14.10
2018-05-15T17:04:47.432Z,14.10
2018-05-15T17:07:14.005Z,14.00
2018-05-15T17:09:41.139Z,14.00
2018-05-15T17:12:07.477Z,14.00
2018-05-15T17:14:33.798Z,13.90
2018-05-15T17:17:00.441Z,13.90
2018-05-15T17:19:26.746Z,14.00
2018-05-15T17:21:53.057Z,13.90
2018-05-15T17:24:19.389Z,13.90
2018-05-15T17:26:45.982Z,13.90
2018-05-15T17:29:13.128Z,13.90
2018-05-15T17:31:40.319Z,13.90
2018-05-15T17:34:06.657Z,13.90
2018-05-15T17:36:33.010Z,13.90
2018-05-15T17:38:59.321Z,14.00
2018-05-15T17:41:25.661Z,14.10
2018-05-15T17:43:52.009Z,14.10
2018-05-15T17:46:18.591Z,14.30
2018-05-15T17:48:45.978Z,14.40
2018-05-15T17:51:13.037Z,14.20
2018-05-15T17:53:39.348Z,14.20
2018-05-15T17:56:05.671Z,14.00
2018-05-15T17:58:32.022Z,13.90
2018-05-15T18:00:58.338Z,13.90
2018-05-15T18:03:24.645Z,14.00
2018-05-15T18:05:50.973Z,13.80
2018-05-15T18:08:18.118Z,13.60
2018-05-15T18:10:45.181Z,13.70
2018-05-15T18:13:11.582Z,13.60
2018-05-15T18:15:37.906Z,13.60
2018-05-15T18:18:04.217Z,13.50
2018-05-15T18:20:30.541Z,13.50
2018-05-15T18:22:57.607Z,13.40
2018-05-15T18:25:23.934Z,13.30
2018-05-15T18:27:50.241Z,13.30
2018-05-15T18:30:17.354Z,13.30
2018-05-15T18:32:44.494Z,13.20
2018-05-15T18:35:10.886Z,13.20
2018-05-15T18:37:37.233Z,13.20
2018-05-15T18:40:03.557Z,13.20
2018-05-15T18:42:29.900Z,13.20
2018-05-15T18:44:56.213Z,13.20
2018-05-15T18:47:22.615Z,13.20
2018-05-15T18:49:48.957Z,13.20
2018-05-15T18:52:15.403Z,13.20
2018-05-15T18:54:41.764Z,13.20
2018-05-15T18:57:08.405Z,13.20
2018-05-15T18:59:34.725Z,13.20
2018-05-15T19:02:01.059Z,13.20
2018-05-15T19:04:27.422Z,13.20
2018-05-15T19:06:53.918Z,13.20
2018-05-15T19:09:20.286Z,13.20
2018-05-15T19:11:46.617Z,13.10
2018-05-15T19:14:13.738Z,13.10
2018-05-15T19:16:40.417Z,13.10
2018-05-15T19:19:06.733Z,13.10
2018-05-15T19:21:33.053Z,13.00
2018-05-15T19:24:00.154Z,12.80
2018-05-15T19:26:26.505Z,12.80
2018-05-15T19:28:52.814Z,12.80
2018-05-15T19:31:25.219Z,12.80
2018-05-15T19:33:51.549Z,12.70
2018-05-15T19:36:18.209Z,12.70
2018-05-15T19:38:45.470Z,12.60
2018-05-15T19:41:24.414Z,12.50
2018-05-15T19:43:50.774Z,12.50
2018-05-15T19:46:17.292Z,12.50
2018-05-15T19:48:43.721Z,12.40
2018-05-15T19:51:10.032Z,12.40
2018-05-15T19:53:36.389Z,12.40
2018-05-15T19:56:02.807Z,12.30
2018-05-15T19:58:29.106Z,12.40
2018-05-15T20:00:55.438Z,12.30
2018-05-15T20:03:22.597Z,12.40
2018-05-15T20:05:49.949Z,12.40
2018-05-15T20:08:17.005Z,12.30
2018-05-15T20:10:44.136Z,12.30
2018-05-15T20:13:10.485Z,12.30
2018-05-15T20:15:36.873Z,12.30
2018-05-15T20:18:03.188Z,12.30
2018-05-15T20:20:29.523Z,12.40
2018-05-15T20:22:55.858Z,12.30
2018-05-15T20:25:22.305Z,12.30
2018-05-15T20:27:48.667Z,12.30
2018-05-15T20:30:15.801Z,12.30
2018-05-15T20:32:42.243Z,12.30
2018-05-15T20:35:08.699Z,12.30
2018-05-15T20:37:35.085Z,12.30
2018-05-15T20:40:01.407Z,12.30
2018-05-15T20:42:27.753Z,12.30
2018-05-15T20:44:54.090Z,12.30
2018-05-15T20:47:20.462Z,12.40
2018-05-15T20:49:46.821Z,12.30
2018-05-15T20:52:13.285Z,12.30
2018-05-15T20:54:39.607Z,12.30
2018-05-15T20:57:05.925Z,12.30
2018-05-15T20:59:32.249Z,12.30
2018-05-15T21:01:59.347Z,12.20
2018-05-15T21:04:26.431Z,12.30
2018-05-15T21:06:52.737Z,12.30
2018-05-15T21:09:19.886Z,12.30
2018-05-15T21:11:47.370Z,12.20
2018-05-15T21:14:13.789Z,12.20
2018-05-15T21:16:40.143Z,12.20
2018-05-15T21:19:07.506Z,12.20
2018-05-15T21:21:34.276Z,12.20
2018-05-15T21:24:02.133Z,12.20
2018-05-15T21:26:28.921Z,12.20
2018-05-15T21:31:36.637Z,12.20
2018-05-15T21:34:03.889Z,12.10
2018-05-15T21:36:30.402Z,12.10
2018-05-15T21:38:57.452Z,12.30
2018-05-15T21:41:24.518Z,12.30
2018-05-15T21:43:50.853Z,12.30
2018-05-15T21:46:17.483Z,12.30
2018-05-15T21:48:43.813Z,12.20
2018-05-15T21:51:10.130Z,12.20
2018-05-15T21:53:37.233Z,12.10
2018-05-15T21:56:04.331Z,12.10
2018-05-15T21:58:31.389Z,12.10
2018-05-15T22:00:57.891Z,12.10
2018-05-15T22:03:24.402Z,12.10
2018-05-15T22:05:50.865Z,12.10
2018-05-15T22:08:17.520Z,12.00
2018-05-15T22:10:44.884Z,12.00
2018-05-15T22:13:24.394Z,12.00
2018-05-15T22:16:03.386Z,11.90
2018-05-15T22:18:41.901Z,12.00
2018-05-15T22:21:20.471Z,12.00
2018-05-15T22:23:47.492Z,12.00
2018-05-15T22:26:17.395Z,12.00
2018-05-15T22:28:50.649Z,11.90
2018-05-15T22:31:17.847Z,12.00
2018-05-15T22:33:44.370Z,11.90
2018-05-15T22:36:10.787Z,12.00
2018-05-15T22:38:37.154Z,12.00
2018-05-15T22:41:04.381Z,12.20
2018-05-15T22:43:30.751Z,12.20
2018-05-15T22:45:57.901Z,12.20
2018-05-15T22:48:25.145Z,12.20
2018-05-15T22:50:51.486Z,12.20
2018-05-15T22:53:18.008Z,12.30
2018-05-15T22:55:45.615Z,12.50
2018-05-15T22:58:12.452Z,12.20
2018-05-15T23:00:38.973Z,12.20
2018-05-15T23:03:05.813Z,12.10
2018-05-15T23:05:32.438Z,12.00
2018-05-15T23:07:59.152Z,11.90
2018-05-15T23:10:25.608Z,11.90
2018-05-15T23:12:52.081Z,11.90
2018-05-15T23:15:18.538Z,11.80
2018-05-15T23:17:45.226Z,11.80
2018-05-15T23:20:12.553Z,11.80
2018-05-15T23:22:41.837Z,11.80
2018-05-15T23:25:08.232Z,11.80
2018-05-15T23:27:34.841Z,11.80
2018-05-15T23:30:01.159Z,11.70
2018-05-15T23:32:27.495Z,11.80
2018-05-15T23:34:53.835Z,11.70
2018-05-15T23:37:20.370Z,11.70
2018-05-15T23:39:46.693Z,11.60
2018-05-15T23:42:13.031Z,11.60
2018-05-15T23:44:39.357Z,11.60
2018-05-15T23:47:05.865Z,11.60
2018-05-15T23:49:32.940Z,11.60
2018-05-15T23:51:59.481Z,11.50
2018-05-15T23:54:26.575Z,11.60
2018-05-15T23:56:52.951Z,11.60
2018-05-15T23:59:19.292Z,11.60
